sensor_id;sensor_type;location;lat;lon;timestamp;P1;durP1;ratioP1;P2;durP2;ratioP2
70426;SDS011;57872;55.432;37.248;2023-04-25T00:04:09;17.63;;;10.55;;
70426;SDS011;57872;55.432;37.248;2023-04-25T00:09:12;20.08;;;9.10;;
70426;SDS011;57872;55.432;37.248;2023-04-25T00:14:12;19.23;;;8.52;;
70426;SDS011;57872;55.432;37.248;2023-04-25T00:19:13;16.63;;;8.70;;
70426;SDS011;57872;55.432;37.248;2023-04-25T00:24:14;17.58;;;8.40;;
70426;SDS011;57872;55.432;37.248;2023-04-25T00:29:15;17.13;;;8.82;;
70426;SDS011;57872;55.432;37.248;2023-04-25T00:34:16;16.23;;;8.23;;
70426;SDS011;57872;55.432;37.248;2023-04-25T00:39:16;17.48;;;8.20;;
70426;SDS011;57872;55.432;37.248;2023-04-25T00:44:17;24.30;;;10.45;;
70426;SDS011;57872;55.432;37.248;2023-04-25T00:49:18;13.63;;;6.53;;
70426;SDS011;57872;55.432;37.248;2023-04-25T00:54:19;13.90;;;7.70;;
70426;SDS011;57872;55.432;37.248;2023-04-25T00:59:19;15.13;;;7.57;;
70426;SDS011;57872;55.432;37.248;2023-04-25T01:04:21;15.65;;;8.25;;
70426;SDS011;57872;55.432;37.248;2023-04-25T01:09:22;17.67;;;8.43;;
70426;SDS011;57872;55.432;37.248;2023-04-25T01:14:23;20.15;;;8.10;;
70426;SDS011;57872;55.432;37.248;2023-04-25T01:19:23;18.17;;;8.43;;
70426;SDS011;57872;55.432;37.248;2023-04-25T01:24:24;18.45;;;8.68;;
70426;SDS011;57872;55.432;37.248;2023-04-25T01:29:26;17.05;;;8.10;;
70426;SDS011;57872;55.432;37.248;2023-04-25T01:34:28;19.77;;;10.30;;
70426;SDS011;57872;55.432;37.248;2023-04-25T01:39:31;16.50;;;8.13;;
70426;SDS011;57872;55.432;37.248;2023-04-25T01:44:33;21.38;;;9.20;;
70426;SDS011;57872;55.432;37.248;2023-04-25T01:49:34;17.65;;;8.35;;
70426;SDS011;57872;55.432;37.248;2023-04-25T01:54:35;17.08;;;9.13;;
70426;SDS011;57872;55.432;37.248;2023-04-25T01:59:36;19.08;;;8.80;;
70426;SDS011;57872;55.432;37.248;2023-04-25T02:04:49;19.30;;;9.38;;
70426;SDS011;57872;55.432;37.248;2023-04-25T02:09:50;18.02;;;8.70;;
70426;SDS011;57872;55.432;37.248;2023-04-25T02:14:53;16.02;;;9.05;;
70426;SDS011;57872;55.432;37.248;2023-04-25T02:20:16;17.27;;;9.63;;
70426;SDS011;57872;55.432;37.248;2023-04-25T02:25:17;15.73;;;8.88;;
70426;SDS011;57872;55.432;37.248;2023-04-25T02:30:21;17.55;;;9.35;;
70426;SDS011;57872;55.432;37.248;2023-04-25T02:35:21;18.35;;;8.48;;
70426;SDS011;57872;55.432;37.248;2023-04-25T02:40:22;17.70;;;9.48;;
70426;SDS011;57872;55.432;37.248;2023-04-25T02:45:23;20.98;;;10.07;;
70426;SDS011;57872;55.432;37.248;2023-04-25T02:50:24;21.05;;;11.02;;
70426;SDS011;57872;55.432;37.248;2023-04-25T02:55:24;23.35;;;10.98;;
70426;SDS011;57872;55.432;37.248;2023-04-25T03:00:26;22.27;;;11.75;;
70426;SDS011;57872;55.432;37.248;2023-04-25T03:05:27;65.65;;;37.22;;
70426;SDS011;57872;55.432;37.248;2023-04-25T03:10:27;23.80;;;12.43;;
70426;SDS011;57872;55.432;37.248;2023-04-25T03:15:35;21.70;;;12.27;;
70426;SDS011;57872;55.432;37.248;2023-04-25T03:20:36;20.02;;;11.73;;
70426;SDS011;57872;55.432;37.248;2023-04-25T03:25:43;26.65;;;12.43;;
70426;SDS011;57872;55.432;37.248;2023-04-25T03:30:48;17.33;;;10.50;;
70426;SDS011;57872;55.432;37.248;2023-04-25T03:36:11;21.60;;;11.77;;
70426;SDS011;57872;55.432;37.248;2023-04-25T03:41:18;23.88;;;11.02;;
70426;SDS011;57872;55.432;37.248;2023-04-25T03:46:31;18.73;;;8.95;;
70426;SDS011;57872;55.432;37.248;2023-04-25T03:51:32;17.60;;;10.45;;
70426;SDS011;57872;55.432;37.248;2023-04-25T03:56:36;25.42;;;9.07;;
70426;SDS011;57872;55.432;37.248;2023-04-25T04:01:53;50.33;;;33.30;;
70426;SDS011;57872;55.432;37.248;2023-04-25T04:06:55;18.92;;;9.13;;
70426;SDS011;57872;55.432;37.248;2023-04-25T04:12:00;16.67;;;8.82;;
70426;SDS011;57872;55.432;37.248;2023-04-25T04:17:04;15.15;;;7.97;;
70426;SDS011;57872;55.432;37.248;2023-04-25T04:22:06;17.13;;;7.70;;
70426;SDS011;57872;55.432;37.248;2023-04-25T04:27:14;17.95;;;8.45;;
70426;SDS011;57872;55.432;37.248;2023-04-25T04:37:42;17.65;;;8.18;;
70426;SDS011;57872;55.432;37.248;2023-04-25T04:42:45;12.20;;;7.95;;
70426;SDS011;57872;55.432;37.248;2023-04-25T04:48:10;13.75;;;7.20;;
70426;SDS011;57872;55.432;37.248;2023-04-25T04:53:35;13.55;;;7.32;;
70426;SDS011;57872;55.432;37.248;2023-04-25T04:59:04;18.85;;;7.68;;
70426;SDS011;57872;55.432;37.248;2023-04-25T05:04:35;15.35;;;6.78;;
70426;SDS011;57872;55.432;37.248;2023-04-25T05:09:55;14.40;;;6.78;;
70426;SDS011;57872;55.432;37.248;2023-04-25T05:15:32;14.45;;;8.02;;
70426;SDS011;57872;55.432;37.248;2023-04-25T05:21:04;15.57;;;7.03;;
70426;SDS011;57872;55.432;37.248;2023-04-25T05:27:01;15.45;;;9.23;;
70426;SDS011;57872;55.432;37.248;2023-04-25T05:32:37;13.95;;;6.55;;
70426;SDS011;57872;55.432;37.248;2023-04-25T05:42:48;11.55;;;6.00;;
70426;SDS011;57872;55.432;37.248;2023-04-25T05:48:16;12.95;;;6.25;;
70426;SDS011;57872;55.432;37.248;2023-04-25T05:53:35;24.48;;;6.80;;
70426;SDS011;57872;55.432;37.248;2023-04-25T05:58:38;13.70;;;5.75;;
70426;SDS011;57872;55.432;37.248;2023-04-25T06:03:53;12.18;;;5.80;;
70426;SDS011;57872;55.432;37.248;2023-04-25T06:08:55;15.75;;;6.45;;
70426;SDS011;57872;55.432;37.248;2023-04-25T06:13:55;13.63;;;5.43;;
70426;SDS011;57872;55.432;37.248;2023-04-25T06:18:56;13.40;;;5.78;;
70426;SDS011;57872;55.432;37.248;2023-04-25T06:23:57;16.15;;;6.00;;
70426;SDS011;57872;55.432;37.248;2023-04-25T06:28:58;16.65;;;7.88;;
70426;SDS011;57872;55.432;37.248;2023-04-25T06:33:58;13.50;;;5.45;;
70426;SDS011;57872;55.432;37.248;2023-04-25T06:39:05;12.93;;;4.65;;
70426;SDS011;57872;55.432;37.248;2023-04-25T06:44:18;12.68;;;4.95;;
70426;SDS011;57872;55.432;37.248;2023-04-25T06:49:26;11.20;;;5.13;;
70426;SDS011;57872;55.432;37.248;2023-04-25T06:54:27;10.82;;;5.15;;
70426;SDS011;57872;55.432;37.248;2023-04-25T06:59:37;13.20;;;4.82;;
70426;SDS011;57872;55.432;37.248;2023-04-25T07:04:41;10.90;;;5.50;;
70426;SDS011;57872;55.432;37.248;2023-04-25T07:09:43;8.82;;;4.35;;
70426;SDS011;57872;55.432;37.248;2023-04-25T07:14:45;16.80;;;8.30;;
70426;SDS011;57872;55.432;37.248;2023-04-25T07:19:48;11.15;;;5.18;;
70426;SDS011;57872;55.432;37.248;2023-04-25T07:24:52;12.27;;;5.10;;
70426;SDS011;57872;55.432;37.248;2023-04-25T07:30:07;12.90;;;4.85;;
70426;SDS011;57872;55.432;37.248;2023-04-25T07:35:14;10.63;;;4.57;;
70426;SDS011;57872;55.432;37.248;2023-04-25T07:40:15;9.43;;;4.40;;
70426;SDS011;57872;55.432;37.248;2023-04-25T07:45:23;13.73;;;4.90;;
70426;SDS011;57872;55.432;37.248;2023-04-25T07:50:25;12.93;;;5.07;;
70426;SDS011;57872;55.432;37.248;2023-04-25T07:55:30;13.57;;;4.55;;
70426;SDS011;57872;55.432;37.248;2023-04-25T08:00:40;11.18;;;4.35;;
70426;SDS011;57872;55.432;37.248;2023-04-25T08:06:12;9.98;;;4.55;;
70426;SDS011;57872;55.432;37.248;2023-04-25T08:11:33;8.55;;;4.10;;
70426;SDS011;57872;55.432;37.248;2023-04-25T08:16:45;11.05;;;5.30;;
70426;SDS011;57872;55.432;37.248;2023-04-25T08:28:07;9.98;;;4.20;;
70426;SDS011;57872;55.432;37.248;2023-04-25T08:33:12;13.27;;;5.60;;
70426;SDS011;57872;55.432;37.248;2023-04-25T08:44:16;9.55;;;5.40;;
70426;SDS011;57872;55.432;37.248;2023-04-25T08:49:55;13.75;;;4.75;;
70426;SDS011;57872;55.432;37.248;2023-04-25T08:55:40;9.48;;;4.35;;
70426;SDS011;57872;55.432;37.248;2023-04-25T09:00:45;11.68;;;4.90;;
70426;SDS011;57872;55.432;37.248;2023-04-25T09:06:22;12.95;;;4.10;;
70426;SDS011;57872;55.432;37.248;2023-04-25T09:13:25;8.77;;;3.40;;
70426;SDS011;57872;55.432;37.248;2023-04-25T09:18:38;11.63;;;4.82;;
70426;SDS011;57872;55.432;37.248;2023-04-25T09:23:51;11.23;;;4.85;;
70426;SDS011;57872;55.432;37.248;2023-04-25T09:29:09;9.15;;;3.60;;
70426;SDS011;57872;55.432;37.248;2023-04-25T09:34:38;8.90;;;4.10;;
70426;SDS011;57872;55.432;37.248;2023-04-25T09:40:08;8.38;;;3.42;;
70426;SDS011;57872;55.432;37.248;2023-04-25T09:45:43;9.70;;;2.72;;
70426;SDS011;57872;55.432;37.248;2023-04-25T09:51:09;8.57;;;3.30;;
70426;SDS011;57872;55.432;37.248;2023-04-25T09:56:18;8.48;;;4.30;;
70426;SDS011;57872;55.432;37.248;2023-04-25T10:01:24;8.10;;;3.50;;
70426;SDS011;57872;55.432;37.248;2023-04-25T10:06:39;8.00;;;3.83;;
70426;SDS011;57872;55.432;37.248;2023-04-25T10:11:42;10.07;;;5.25;;
70426;SDS011;57872;55.432;37.248;2023-04-25T10:16:43;8.38;;;4.40;;
70426;SDS011;57872;55.432;37.248;2023-04-25T10:21:46;9.68;;;4.70;;
70426;SDS011;57872;55.432;37.248;2023-04-25T10:26:51;8.15;;;3.80;;
70426;SDS011;57872;55.432;37.248;2023-04-25T10:32:03;7.82;;;3.55;;
70426;SDS011;57872;55.432;37.248;2023-04-25T10:43:42;9.30;;;4.28;;
70426;SDS011;57872;55.432;37.248;2023-04-25T10:49:04;9.10;;;4.03;;
70426;SDS011;57872;55.432;37.248;2023-04-25T10:54:05;8.65;;;3.78;;
70426;SDS011;57872;55.432;37.248;2023-04-25T10:59:14;8.05;;;3.80;;
70426;SDS011;57872;55.432;37.248;2023-04-25T11:04:31;7.00;;;3.42;;
70426;SDS011;57872;55.432;37.248;2023-04-25T11:09:34;9.27;;;4.25;;
70426;SDS011;57872;55.432;37.248;2023-04-25T11:14:36;7.53;;;3.28;;
70426;SDS011;57872;55.432;37.248;2023-04-25T11:19:37;6.60;;;3.58;;
70426;SDS011;57872;55.432;37.248;2023-04-25T11:24:49;8.55;;;3.70;;
70426;SDS011;57872;55.432;37.248;2023-04-25T11:29:51;7.05;;;3.30;;
70426;SDS011;57872;55.432;37.248;2023-04-25T11:34:52;6.93;;;4.03;;
70426;SDS011;57872;55.432;37.248;2023-04-25T11:39:52;7.75;;;3.50;;
70426;SDS011;57872;55.432;37.248;2023-04-25T11:44:53;11.98;;;3.95;;
70426;SDS011;57872;55.432;37.248;2023-04-25T11:49:54;7.95;;;3.70;;
70426;SDS011;57872;55.432;37.248;2023-04-25T11:55:00;8.45;;;3.53;;
70426;SDS011;57872;55.432;37.248;2023-04-25T12:00:17;7.18;;;3.65;;
70426;SDS011;57872;55.432;37.248;2023-04-25T12:05:29;12.82;;;4.05;;
70426;SDS011;57872;55.432;37.248;2023-04-25T12:10:31;6.95;;;3.80;;
70426;SDS011;57872;55.432;37.248;2023-04-25T12:15:32;6.80;;;4.00;;
70426;SDS011;57872;55.432;37.248;2023-04-25T12:20:36;8.77;;;4.00;;
70426;SDS011;57872;55.432;37.248;2023-04-25T12:25:52;9.05;;;4.10;;
70426;SDS011;57872;55.432;37.248;2023-04-25T12:31:03;9.05;;;3.97;;
70426;SDS011;57872;55.432;37.248;2023-04-25T12:36:14;8.13;;;4.00;;
70426;SDS011;57872;55.432;37.248;2023-04-25T12:41:17;8.25;;;4.05;;
70426;SDS011;57872;55.432;37.248;2023-04-25T12:46:19;8.32;;;4.18;;
70426;SDS011;57872;55.432;37.248;2023-04-25T12:51:19;9.85;;;4.22;;
70426;SDS011;57872;55.432;37.248;2023-04-25T12:56:20;7.50;;;3.78;;
70426;SDS011;57872;55.432;37.248;2023-04-25T13:01:21;7.28;;;3.50;;
70426;SDS011;57872;55.432;37.248;2023-04-25T13:06:22;7.07;;;3.80;;
70426;SDS011;57872;55.432;37.248;2023-04-25T13:11:23;9.93;;;4.80;;
70426;SDS011;57872;55.432;37.248;2023-04-25T13:16:27;7.45;;;3.90;;
70426;SDS011;57872;55.432;37.248;2023-04-25T13:21:30;8.48;;;4.45;;
70426;SDS011;57872;55.432;37.248;2023-04-25T13:26:34;9.73;;;4.05;;
70426;SDS011;57872;55.432;37.248;2023-04-25T13:31:35;7.63;;;3.60;;
70426;SDS011;57872;55.432;37.248;2023-04-25T13:36:41;9.52;;;3.47;;
70426;SDS011;57872;55.432;37.248;2023-04-25T13:41:42;5.90;;;3.00;;
70426;SDS011;57872;55.432;37.248;2023-04-25T13:46:43;10.63;;;3.63;;
70426;SDS011;57872;55.432;37.248;2023-04-25T13:51:44;6.50;;;3.05;;
70426;SDS011;57872;55.432;37.248;2023-04-25T13:56:59;11.88;;;3.70;;
70426;SDS011;57872;55.432;37.248;2023-04-25T14:02:06;12.23;;;3.33;;
70426;SDS011;57872;55.432;37.248;2023-04-25T14:07:20;11.48;;;3.63;;
70426;SDS011;57872;55.432;37.248;2023-04-25T14:12:24;9.43;;;4.18;;
70426;SDS011;57872;55.432;37.248;2023-04-25T14:17:37;9.98;;;3.65;;
70426;SDS011;57872;55.432;37.248;2023-04-25T14:22:40;10.25;;;3.63;;
70426;SDS011;57872;55.432;37.248;2023-04-25T14:27:49;8.43;;;3.38;;
70426;SDS011;57872;55.432;37.248;2023-04-25T14:33:04;10.05;;;6.72;;
70426;SDS011;57872;55.432;37.248;2023-04-25T14:38:05;7.78;;;3.58;;
70426;SDS011;57872;55.432;37.248;2023-04-25T14:48:20;8.80;;;3.40;;
70426;SDS011;57872;55.432;37.248;2023-04-25T14:53:27;9.18;;;3.55;;
70426;SDS011;57872;55.432;37.248;2023-04-25T14:58:36;15.50;;;10.00;;
70426;SDS011;57872;55.432;37.248;2023-04-25T15:03:44;10.20;;;3.95;;
70426;SDS011;57872;55.432;37.248;2023-04-25T15:08:47;8.98;;;3.30;;
70426;SDS011;57872;55.432;37.248;2023-04-25T15:13:49;6.78;;;3.17;;
70426;SDS011;57872;55.432;37.248;2023-04-25T15:18:50;7.75;;;3.72;;
70426;SDS011;57872;55.432;37.248;2023-04-25T15:23:50;7.95;;;3.90;;
70426;SDS011;57872;55.432;37.248;2023-04-25T15:28:51;9.30;;;4.38;;
70426;SDS011;57872;55.432;37.248;2023-04-25T15:33:52;11.55;;;7.18;;
70426;SDS011;57872;55.432;37.248;2023-04-25T15:38:53;12.63;;;7.85;;
70426;SDS011;57872;55.432;37.248;2023-04-25T15:44:05;11.48;;;6.60;;
70426;SDS011;57872;55.432;37.248;2023-04-25T15:49:14;14.55;;;6.75;;
70426;SDS011;57872;55.432;37.248;2023-04-25T15:54:21;16.83;;;6.82;;
70426;SDS011;57872;55.432;37.248;2023-04-25T15:59:22;15.57;;;5.95;;
70426;SDS011;57872;55.432;37.248;2023-04-25T16:04:26;11.73;;;6.05;;
70426;SDS011;57872;55.432;37.248;2023-04-25T16:09:38;9.95;;;5.32;;
70426;SDS011;57872;55.432;37.248;2023-04-25T16:14:47;12.82;;;5.40;;
70426;SDS011;57872;55.432;37.248;2023-04-25T16:19:51;15.55;;;6.55;;
70426;SDS011;57872;55.432;37.248;2023-04-25T16:24:52;12.65;;;6.20;;
70426;SDS011;57872;55.432;37.248;2023-04-25T16:29:57;13.53;;;6.60;;
70426;SDS011;57872;55.432;37.248;2023-04-25T16:35:07;24.38;;;12.82;;
70426;SDS011;57872;55.432;37.248;2023-04-25T16:40:11;20.38;;;8.50;;
70426;SDS011;57872;55.432;37.248;2023-04-25T16:45:14;23.38;;;10.32;;
70426;SDS011;57872;55.432;37.248;2023-04-25T16:50:19;20.40;;;9.63;;
70426;SDS011;57872;55.432;37.248;2023-04-25T16:55:20;21.50;;;9.45;;
70426;SDS011;57872;55.432;37.248;2023-04-25T17:06:20;20.55;;;8.38;;
70426;SDS011;57872;55.432;37.248;2023-04-25T17:11:20;14.77;;;6.25;;
70426;SDS011;57872;55.432;37.248;2023-04-25T17:16:38;15.95;;;5.90;;
70426;SDS011;57872;55.432;37.248;2023-04-25T17:21:45;16.40;;;6.53;;
70426;SDS011;57872;55.432;37.248;2023-04-25T17:27:39;13.00;;;5.40;;
70426;SDS011;57872;55.432;37.248;2023-04-25T17:32:46;13.18;;;6.03;;
70426;SDS011;57872;55.432;37.248;2023-04-25T17:37:49;12.60;;;5.35;;
70426;SDS011;57872;55.432;37.248;2023-04-25T17:42:51;14.02;;;7.03;;
70426;SDS011;57872;55.432;37.248;2023-04-25T17:47:52;11.02;;;5.70;;
70426;SDS011;57872;55.432;37.248;2023-04-25T17:52:56;13.52;;;6.10;;
70426;SDS011;57872;55.432;37.248;2023-04-25T17:58:13;11.88;;;5.72;;
70426;SDS011;57872;55.432;37.248;2023-04-25T18:03:47;11.75;;;5.57;;
70426;SDS011;57872;55.432;37.248;2023-04-25T18:08:49;9.45;;;5.15;;
70426;SDS011;57872;55.432;37.248;2023-04-25T18:13:55;10.10;;;5.00;;
70426;SDS011;57872;55.432;37.248;2023-04-25T18:18:56;9.38;;;5.28;;
70426;SDS011;57872;55.432;37.248;2023-04-25T18:24:04;9.73;;;5.45;;
70426;SDS011;57872;55.432;37.248;2023-04-25T18:29:08;13.13;;;5.45;;
70426;SDS011;57872;55.432;37.248;2023-04-25T18:34:17;10.80;;;5.63;;
70426;SDS011;57872;55.432;37.248;2023-04-25T18:39:19;12.10;;;5.60;;
70426;SDS011;57872;55.432;37.248;2023-04-25T18:44:25;9.85;;;5.10;;
70426;SDS011;57872;55.432;37.248;2023-04-25T18:49:27;11.00;;;5.72;;
70426;SDS011;57872;55.432;37.248;2023-04-25T18:54:27;14.27;;;6.03;;
70426;SDS011;57872;55.432;37.248;2023-04-25T18:59:31;16.60;;;10.50;;
70426;SDS011;57872;55.432;37.248;2023-04-25T19:04:32;13.52;;;5.85;;
70426;SDS011;57872;55.432;37.248;2023-04-25T19:09:33;15.18;;;6.03;;
70426;SDS011;57872;55.432;37.248;2023-04-25T19:14:34;11.70;;;6.13;;
70426;SDS011;57872;55.432;37.248;2023-04-25T19:19:35;12.40;;;6.53;;
70426;SDS011;57872;55.432;37.248;2023-04-25T19:24:37;10.52;;;5.88;;
70426;SDS011;57872;55.432;37.248;2023-04-25T19:29:39;12.18;;;6.82;;
70426;SDS011;57872;55.432;37.248;2023-04-25T19:34:45;11.10;;;6.55;;
70426;SDS011;57872;55.432;37.248;2023-04-25T19:40:08;12.95;;;6.65;;
70426;SDS011;57872;55.432;37.248;2023-04-25T19:45:10;13.43;;;6.80;;
70426;SDS011;57872;55.432;37.248;2023-04-25T19:50:12;11.95;;;7.00;;
70426;SDS011;57872;55.432;37.248;2023-04-25T19:55:13;12.50;;;7.53;;
70426;SDS011;57872;55.432;37.248;2023-04-25T20:00:28;14.63;;;7.68;;
70426;SDS011;57872;55.432;37.248;2023-04-25T20:05:58;14.48;;;7.95;;
70426;SDS011;57872;55.432;37.248;2023-04-25T20:10:58;16.20;;;8.82;;
70426;SDS011;57872;55.432;37.248;2023-04-25T20:16:11;16.08;;;8.38;;
70426;SDS011;57872;55.432;37.248;2023-04-25T20:21:35;14.73;;;8.65;;
70426;SDS011;57872;55.432;37.248;2023-04-25T20:26:42;14.07;;;8.82;;
70426;SDS011;57872;55.432;37.248;2023-04-25T20:31:49;14.70;;;8.93;;
70426;SDS011;57872;55.432;37.248;2023-04-25T20:36:50;17.20;;;9.20;;
70426;SDS011;57872;55.432;37.248;2023-04-25T20:41:52;18.98;;;9.88;;
70426;SDS011;57872;55.432;37.248;2023-04-25T20:46:53;15.32;;;8.80;;
70426;SDS011;57872;55.432;37.248;2023-04-25T20:51:59;18.73;;;9.73;;
70426;SDS011;57872;55.432;37.248;2023-04-25T20:57:17;18.40;;;10.00;;
70426;SDS011;57872;55.432;37.248;2023-04-25T21:02:24;18.10;;;11.10;;
70426;SDS011;57872;55.432;37.248;2023-04-25T21:07:25;19.52;;;10.27;;
70426;SDS011;57872;55.432;37.248;2023-04-25T21:12:25;19.48;;;10.07;;
70426;SDS011;57872;55.432;37.248;2023-04-25T21:17:29;18.38;;;9.88;;
70426;SDS011;57872;55.432;37.248;2023-04-25T21:22:30;18.38;;;9.70;;
70426;SDS011;57872;55.432;37.248;2023-04-25T21:27:33;17.05;;;9.90;;
70426;SDS011;57872;55.432;37.248;2023-04-25T21:32:34;18.73;;;9.98;;
70426;SDS011;57872;55.432;37.248;2023-04-25T21:37:35;16.05;;;9.75;;
70426;SDS011;57872;55.432;37.248;2023-04-25T21:42:36;17.60;;;9.32;;
70426;SDS011;57872;55.432;37.248;2023-04-25T21:47:37;18.05;;;10.75;;
70426;SDS011;57872;55.432;37.248;2023-04-25T21:52:38;17.98;;;9.57;;
70426;SDS011;57872;55.432;37.248;2023-04-25T21:57:39;18.02;;;9.82;;
70426;SDS011;57872;55.432;37.248;2023-04-25T22:02:40;16.75;;;9.48;;
70426;SDS011;57872;55.432;37.248;2023-04-25T22:07:41;15.07;;;9.05;;
70426;SDS011;57872;55.432;37.248;2023-04-25T22:12:42;16.20;;;8.63;;
70426;SDS011;57872;55.432;37.248;2023-04-25T22:17:44;14.63;;;8.77;;
70426;SDS011;57872;55.432;37.248;2023-04-25T22:22:46;17.50;;;9.38;;
70426;SDS011;57872;55.432;37.248;2023-04-25T22:27:46;14.82;;;9.00;;
70426;SDS011;57872;55.432;37.248;2023-04-25T22:32:48;15.75;;;8.88;;
70426;SDS011;57872;55.432;37.248;2023-04-25T22:37:49;13.07;;;8.45;;
70426;SDS011;57872;55.432;37.248;2023-04-25T22:42:49;18.35;;;8.90;;
70426;SDS011;57872;55.432;37.248;2023-04-25T22:47:50;16.52;;;9.20;;
70426;SDS011;57872;55.432;37.248;2023-04-25T22:52:52;16.15;;;9.07;;
70426;SDS011;57872;55.432;37.248;2023-04-25T22:58:03;14.90;;;8.90;;
70426;SDS011;57872;55.432;37.248;2023-04-25T23:03:04;14.15;;;8.45;;
70426;SDS011;57872;55.432;37.248;2023-04-25T23:08:05;14.63;;;8.32;;
70426;SDS011;57872;55.432;37.248;2023-04-25T23:13:05;16.88;;;9.90;;
70426;SDS011;57872;55.432;37.248;2023-04-25T23:18:06;18.75;;;10.13;;
70426;SDS011;57872;55.432;37.248;2023-04-25T23:23:07;18.85;;;9.57;;
70426;SDS011;57872;55.432;37.248;2023-04-25T23:28:20;18.15;;;9.43;;
70426;SDS011;57872;55.432;37.248;2023-04-25T23:33:37;15.93;;;8.95;;
70426;SDS011;57872;55.432;37.248;2023-04-25T23:38:53;17.25;;;9.32;;
70426;SDS011;57872;55.432;37.248;2023-04-25T23:43:55;18.25;;;10.07;;
70426;SDS011;57872;55.432;37.248;2023-04-25T23:48:56;20.38;;;10.48;;
70426;SDS011;57872;55.432;37.248;2023-04-25T23:54:33;18.75;;;10.52;;
70426;SDS011;57872;55.432;37.248;2023-04-25T23:59:49;21.00;;;11.60;;
